sensor_id;sensor_type;location;lat;lon;timestamp;P1;durP1;ratioP1;P2;durP2;ratioP2
48363;SDS011;34170;54.364;18.582;2024-01-11T00:02:24;16.15;;;5.50;;
48363;SDS011;34170;54.364;18.582;2024-01-11T00:04:52;13.68;;;5.05;;
48363;SDS011;34170;54.364;18.582;2024-01-11T00:07:20;12.20;;;4.97;;
48363;SDS011;34170;54.364;18.582;2024-01-11T00:09:47;9.48;;;4.57;;
48363;SDS011;34170;54.364;18.582;2024-01-11T00:12:15;10.85;;;5.05;;
48363;SDS011;34170;54.364;18.582;2024-01-11T00:14:42;9.93;;;5.05;;
48363;SDS011;34170;54.364;18.582;2024-01-11T00:17:10;11.10;;;4.88;;
48363;SDS011;34170;54.364;18.582;2024-01-11T00:19:38;10.30;;;5.05;;
48363;SDS011;34170;54.364;18.582;2024-01-11T00:22:05;10.25;;;5.25;;
48363;SDS011;34170;54.364;18.582;2024-01-11T00:24:33;10.40;;;5.05;;
48363;SDS011;34170;54.364;18.582;2024-01-11T00:27:05;10.55;;;5.28;;
48363;SDS011;34170;54.364;18.582;2024-01-11T00:29:33;10.23;;;4.80;;
48363;SDS011;34170;54.364;18.582;2024-01-11T00:32:03;10.82;;;5.47;;
48363;SDS011;34170;54.364;18.582;2024-01-11T00:34:31;12.80;;;5.72;;
48363;SDS011;34170;54.364;18.582;2024-01-11T00:36:58;11.15;;;5.90;;
48363;SDS011;34170;54.364;18.582;2024-01-11T00:39:26;9.30;;;5.40;;
48363;SDS011;34170;54.364;18.582;2024-01-11T00:41:53;9.77;;;4.88;;
48363;SDS011;34170;54.364;18.582;2024-01-11T00:44:22;10.82;;;5.82;;
48363;SDS011;34170;54.364;18.582;2024-01-11T00:46:49;8.98;;;5.22;;
48363;SDS011;34170;54.364;18.582;2024-01-11T00:49:17;9.35;;;4.95;;
48363;SDS011;34170;54.364;18.582;2024-01-11T00:51:45;9.38;;;5.50;;
48363;SDS011;34170;54.364;18.582;2024-01-11T00:54:12;10.35;;;5.70;;
48363;SDS011;34170;54.364;18.582;2024-01-11T00:56:40;11.02;;;5.95;;
48363;SDS011;34170;54.364;18.582;2024-01-11T00:59:08;11.77;;;5.97;;
48363;SDS011;34170;54.364;18.582;2024-01-11T01:01:35;8.77;;;5.70;;
48363;SDS011;34170;54.364;18.582;2024-01-11T01:04:03;10.35;;;5.68;;
48363;SDS011;34170;54.364;18.582;2024-01-11T01:06:30;10.55;;;5.80;;
48363;SDS011;34170;54.364;18.582;2024-01-11T01:08:58;10.13;;;5.90;;
48363;SDS011;34170;54.364;18.582;2024-01-11T01:11:26;12.70;;;6.85;;
48363;SDS011;34170;54.364;18.582;2024-01-11T01:13:53;20.85;;;7.22;;
48363;SDS011;34170;54.364;18.582;2024-01-11T01:16:21;7.55;;;5.05;;
48363;SDS011;34170;54.364;18.582;2024-01-11T01:18:48;9.65;;;5.35;;
48363;SDS011;34170;54.364;18.582;2024-01-11T01:21:16;10.02;;;5.40;;
48363;SDS011;34170;54.364;18.582;2024-01-11T01:23:44;8.73;;;5.13;;
48363;SDS011;34170;54.364;18.582;2024-01-11T01:26:11;8.57;;;4.32;;
48363;SDS011;34170;54.364;18.582;2024-01-11T01:28:39;7.30;;;4.30;;
48363;SDS011;34170;54.364;18.582;2024-01-11T01:31:07;9.00;;;4.10;;
48363;SDS011;34170;54.364;18.582;2024-01-11T01:33:34;9.57;;;4.15;;
48363;SDS011;34170;54.364;18.582;2024-01-11T01:36:02;9.25;;;4.22;;
48363;SDS011;34170;54.364;18.582;2024-01-11T01:38:30;8.23;;;4.18;;
48363;SDS011;34170;54.364;18.582;2024-01-11T01:40:58;6.20;;;3.90;;
48363;SDS011;34170;54.364;18.582;2024-01-11T01:43:26;6.55;;;3.33;;
48363;SDS011;34170;54.364;18.582;2024-01-11T01:45:53;6.60;;;3.28;;
48363;SDS011;34170;54.364;18.582;2024-01-11T01:48:21;8.02;;;3.80;;
48363;SDS011;34170;54.364;18.582;2024-01-11T01:50:49;6.40;;;3.55;;
48363;SDS011;34170;54.364;18.582;2024-01-11T01:53:18;7.72;;;3.92;;
48363;SDS011;34170;54.364;18.582;2024-01-11T01:55:49;6.57;;;3.67;;
48363;SDS011;34170;54.364;18.582;2024-01-11T01:58:20;4.00;;;2.27;;
48363;SDS011;34170;54.364;18.582;2024-01-11T02:00:48;6.03;;;3.17;;
48363;SDS011;34170;54.364;18.582;2024-01-11T02:03:18;6.10;;;3.42;;
48363;SDS011;34170;54.364;18.582;2024-01-11T02:05:47;9.73;;;3.15;;
48363;SDS011;34170;54.364;18.582;2024-01-11T02:08:17;7.90;;;3.65;;
48363;SDS011;34170;54.364;18.582;2024-01-11T02:10:52;6.60;;;3.25;;
48363;SDS011;34170;54.364;18.582;2024-01-11T02:13:20;5.85;;;2.95;;
48363;SDS011;34170;54.364;18.582;2024-01-11T02:15:48;7.38;;;3.15;;
48363;SDS011;34170;54.364;18.582;2024-01-11T02:18:17;9.00;;;3.60;;
48363;SDS011;34170;54.364;18.582;2024-01-11T02:20:44;5.07;;;2.85;;
48363;SDS011;34170;54.364;18.582;2024-01-11T02:23:14;12.50;;;3.75;;
48363;SDS011;34170;54.364;18.582;2024-01-11T02:28:12;8.60;;;3.67;;
48363;SDS011;34170;54.364;18.582;2024-01-11T02:30:39;8.75;;;3.00;;
48363;SDS011;34170;54.364;18.582;2024-01-11T02:33:07;4.60;;;2.85;;
48363;SDS011;34170;54.364;18.582;2024-01-11T02:35:36;7.30;;;3.17;;
48363;SDS011;34170;54.364;18.582;2024-01-11T02:38:11;6.10;;;3.08;;
48363;SDS011;34170;54.364;18.582;2024-01-11T02:40:38;6.35;;;2.60;;
48363;SDS011;34170;54.364;18.582;2024-01-11T02:43:10;5.32;;;2.92;;
48363;SDS011;34170;54.364;18.582;2024-01-11T02:45:38;6.25;;;2.72;;
48363;SDS011;34170;54.364;18.582;2024-01-11T02:48:05;6.63;;;2.38;;
48363;SDS011;34170;54.364;18.582;2024-01-11T02:50:33;10.50;;;2.72;;
48363;SDS011;34170;54.364;18.582;2024-01-11T02:53:01;7.70;;;3.17;;
48363;SDS011;34170;54.364;18.582;2024-01-11T02:55:28;5.60;;;3.33;;
48363;SDS011;34170;54.364;18.582;2024-01-11T02:57:56;6.82;;;2.95;;
48363;SDS011;34170;54.364;18.582;2024-01-11T03:00:23;7.43;;;2.80;;
48363;SDS011;34170;54.364;18.582;2024-01-11T03:02:51;6.15;;;3.00;;
48363;SDS011;34170;54.364;18.582;2024-01-11T03:05:19;5.15;;;3.22;;
48363;SDS011;34170;54.364;18.582;2024-01-11T03:07:46;9.32;;;2.85;;
48363;SDS011;34170;54.364;18.582;2024-01-11T03:10:14;6.45;;;2.80;;
48363;SDS011;34170;54.364;18.582;2024-01-11T03:12:41;10.00;;;3.25;;
48363;SDS011;34170;54.364;18.582;2024-01-11T03:15:09;6.18;;;3.05;;
48363;SDS011;34170;54.364;18.582;2024-01-11T03:17:36;7.57;;;3.10;;
48363;SDS011;34170;54.364;18.582;2024-01-11T03:20:04;7.53;;;3.22;;
48363;SDS011;34170;54.364;18.582;2024-01-11T03:22:33;6.20;;;3.28;;
48363;SDS011;34170;54.364;18.582;2024-01-11T03:25:01;7.65;;;3.28;;
48363;SDS011;34170;54.364;18.582;2024-01-11T03:27:29;6.90;;;3.38;;
48363;SDS011;34170;54.364;18.582;2024-01-11T03:29:56;7.03;;;3.85;;
48363;SDS011;34170;54.364;18.582;2024-01-11T03:32:24;9.68;;;3.50;;
48363;SDS011;34170;54.364;18.582;2024-01-11T03:34:52;8.20;;;3.22;;
48363;SDS011;34170;54.364;18.582;2024-01-11T03:37:19;7.55;;;3.50;;
48363;SDS011;34170;54.364;18.582;2024-01-11T03:39:47;7.03;;;3.38;;
48363;SDS011;34170;54.364;18.582;2024-01-11T03:42:14;11.50;;;3.72;;
48363;SDS011;34170;54.364;18.582;2024-01-11T03:44:42;8.73;;;3.53;;
48363;SDS011;34170;54.364;18.582;2024-01-11T03:47:10;8.30;;;3.70;;
48363;SDS011;34170;54.364;18.582;2024-01-11T03:49:37;7.95;;;3.40;;
48363;SDS011;34170;54.364;18.582;2024-01-11T03:52:05;7.57;;;3.70;;
48363;SDS011;34170;54.364;18.582;2024-01-11T03:54:33;11.85;;;4.40;;
48363;SDS011;34170;54.364;18.582;2024-01-11T03:57:01;10.27;;;3.60;;
48363;SDS011;34170;54.364;18.582;2024-01-11T03:59:28;8.77;;;3.33;;
48363;SDS011;34170;54.364;18.582;2024-01-11T04:01:57;6.80;;;3.40;;
48363;SDS011;34170;54.364;18.582;2024-01-11T04:04:24;9.00;;;3.58;;
48363;SDS011;34170;54.364;18.582;2024-01-11T04:06:52;7.80;;;3.72;;
48363;SDS011;34170;54.364;18.582;2024-01-11T04:09:20;7.40;;;3.40;;
48363;SDS011;34170;54.364;18.582;2024-01-11T04:11:47;10.57;;;3.88;;
48363;SDS011;34170;54.364;18.582;2024-01-11T04:14:15;8.23;;;3.65;;
48363;SDS011;34170;54.364;18.582;2024-01-11T04:16:43;8.88;;;4.25;;
48363;SDS011;34170;54.364;18.582;2024-01-11T04:19:11;9.23;;;3.80;;
48363;SDS011;34170;54.364;18.582;2024-01-11T04:21:39;13.68;;;4.95;;
48363;SDS011;34170;54.364;18.582;2024-01-11T04:24:07;7.53;;;3.70;;
48363;SDS011;34170;54.364;18.582;2024-01-11T04:26:35;8.88;;;4.15;;
48363;SDS011;34170;54.364;18.582;2024-01-11T04:29:02;9.73;;;4.05;;
48363;SDS011;34170;54.364;18.582;2024-01-11T04:31:30;8.75;;;4.82;;
48363;SDS011;34170;54.364;18.582;2024-01-11T04:33:58;8.93;;;4.18;;
48363;SDS011;34170;54.364;18.582;2024-01-11T04:36:26;14.63;;;4.20;;
48363;SDS011;34170;54.364;18.582;2024-01-11T04:38:53;11.48;;;4.80;;
48363;SDS011;34170;54.364;18.582;2024-01-11T04:41:20;8.32;;;4.07;;
48363;SDS011;34170;54.364;18.582;2024-01-11T04:43:48;11.95;;;4.20;;
48363;SDS011;34170;54.364;18.582;2024-01-11T04:46:19;10.98;;;4.55;;
48363;SDS011;34170;54.364;18.582;2024-01-11T04:48:48;9.65;;;4.22;;
48363;SDS011;34170;54.364;18.582;2024-01-11T04:51:17;9.75;;;4.47;;
48363;SDS011;34170;54.364;18.582;2024-01-11T04:53:45;11.48;;;4.05;;
48363;SDS011;34170;54.364;18.582;2024-01-11T04:56:14;9.43;;;3.90;;
48363;SDS011;34170;54.364;18.582;2024-01-11T04:58:44;9.85;;;4.00;;
48363;SDS011;34170;54.364;18.582;2024-01-11T05:01:12;8.85;;;3.95;;
48363;SDS011;34170;54.364;18.582;2024-01-11T05:03:41;9.73;;;3.78;;
48363;SDS011;34170;54.364;18.582;2024-01-11T05:06:16;8.18;;;4.10;;
48363;SDS011;34170;54.364;18.582;2024-01-11T05:08:51;11.43;;;4.07;;
48363;SDS011;34170;54.364;18.582;2024-01-11T05:11:21;10.48;;;4.38;;
48363;SDS011;34170;54.364;18.582;2024-01-11T05:13:52;10.18;;;4.32;;
48363;SDS011;34170;54.364;18.582;2024-01-11T05:18:55;12.38;;;4.63;;
48363;SDS011;34170;54.364;18.582;2024-01-11T05:21:24;11.38;;;4.30;;
48363;SDS011;34170;54.364;18.582;2024-01-11T05:23:53;8.93;;;4.25;;
48363;SDS011;34170;54.364;18.582;2024-01-11T05:26:21;9.68;;;4.28;;
48363;SDS011;34170;54.364;18.582;2024-01-11T05:28:48;7.53;;;3.70;;
48363;SDS011;34170;54.364;18.582;2024-01-11T05:31:16;8.35;;;4.25;;
48363;SDS011;34170;54.364;18.582;2024-01-11T05:33:45;9.00;;;3.92;;
48363;SDS011;34170;54.364;18.582;2024-01-11T05:36:14;8.07;;;3.75;;
48363;SDS011;34170;54.364;18.582;2024-01-11T05:38:42;6.68;;;3.75;;
48363;SDS011;34170;54.364;18.582;2024-01-11T05:41:10;9.98;;;4.30;;
48363;SDS011;34170;54.364;18.582;2024-01-11T05:43:38;5.82;;;3.30;;
48363;SDS011;34170;54.364;18.582;2024-01-11T05:46:10;10.35;;;3.47;;
48363;SDS011;34170;54.364;18.582;2024-01-11T05:48:38;7.28;;;3.70;;
48363;SDS011;34170;54.364;18.582;2024-01-11T05:51:07;8.85;;;3.80;;
48363;SDS011;34170;54.364;18.582;2024-01-11T05:53:35;9.13;;;3.58;;
48363;SDS011;34170;54.364;18.582;2024-01-11T05:56:07;7.63;;;3.20;;
48363;SDS011;34170;54.364;18.582;2024-01-11T05:58:39;6.53;;;3.33;;
48363;SDS011;34170;54.364;18.582;2024-01-11T06:01:07;8.85;;;2.95;;
48363;SDS011;34170;54.364;18.582;2024-01-11T06:03:34;8.73;;;2.72;;
48363;SDS011;34170;54.364;18.582;2024-01-11T06:06:02;5.20;;;2.80;;
48363;SDS011;34170;54.364;18.582;2024-01-11T06:08:31;11.05;;;3.45;;
48363;SDS011;34170;54.364;18.582;2024-01-11T06:10:59;6.07;;;3.03;;
48363;SDS011;34170;54.364;18.582;2024-01-11T06:13:26;9.23;;;3.35;;
48363;SDS011;34170;54.364;18.582;2024-01-11T06:15:55;6.20;;;2.83;;
48363;SDS011;34170;54.364;18.582;2024-01-11T06:18:22;8.57;;;2.55;;
48363;SDS011;34170;54.364;18.582;2024-01-11T06:20:50;6.25;;;3.08;;
48363;SDS011;34170;54.364;18.582;2024-01-11T06:23:18;8.20;;;2.92;;
48363;SDS011;34170;54.364;18.582;2024-01-11T06:25:47;8.00;;;2.47;;
48363;SDS011;34170;54.364;18.582;2024-01-11T06:28:14;6.85;;;3.13;;
48363;SDS011;34170;54.364;18.582;2024-01-11T06:30:42;6.30;;;2.80;;
48363;SDS011;34170;54.364;18.582;2024-01-11T06:33:10;7.90;;;3.47;;
48363;SDS011;34170;54.364;18.582;2024-01-11T06:35:38;8.18;;;3.15;;
48363;SDS011;34170;54.364;18.582;2024-01-11T06:38:07;8.75;;;2.80;;
48363;SDS011;34170;54.364;18.582;2024-01-11T06:40:35;5.72;;;2.95;;
48363;SDS011;34170;54.364;18.582;2024-01-11T06:43:02;6.32;;;3.08;;
48363;SDS011;34170;54.364;18.582;2024-01-11T06:45:30;6.40;;;2.85;;
48363;SDS011;34170;54.364;18.582;2024-01-11T06:47:58;6.15;;;2.95;;
48363;SDS011;34170;54.364;18.582;2024-01-11T06:50:26;6.93;;;2.45;;
48363;SDS011;34170;54.364;18.582;2024-01-11T06:52:53;7.68;;;3.35;;
48363;SDS011;34170;54.364;18.582;2024-01-11T06:55:21;7.07;;;3.30;;
48363;SDS011;34170;54.364;18.582;2024-01-11T06:57:48;7.13;;;3.00;;
48363;SDS011;34170;54.364;18.582;2024-01-11T07:00:16;7.72;;;3.42;;
48363;SDS011;34170;54.364;18.582;2024-01-11T07:02:44;5.70;;;2.78;;
48363;SDS011;34170;54.364;18.582;2024-01-11T07:05:12;11.30;;;3.58;;
48363;SDS011;34170;54.364;18.582;2024-01-11T07:07:40;8.60;;;3.15;;
48363;SDS011;34170;54.364;18.582;2024-01-11T07:10:07;7.35;;;3.15;;
48363;SDS011;34170;54.364;18.582;2024-01-11T07:12:35;6.25;;;2.90;;
48363;SDS011;34170;54.364;18.582;2024-01-11T07:15:05;8.27;;;3.08;;
48363;SDS011;34170;54.364;18.582;2024-01-11T07:17:34;7.65;;;3.08;;
48363;SDS011;34170;54.364;18.582;2024-01-11T07:20:03;6.60;;;2.72;;
48363;SDS011;34170;54.364;18.582;2024-01-11T07:22:31;7.57;;;3.35;;
48363;SDS011;34170;54.364;18.582;2024-01-11T07:24:59;6.75;;;3.22;;
48363;SDS011;34170;54.364;18.582;2024-01-11T07:27:26;8.75;;;3.35;;
48363;SDS011;34170;54.364;18.582;2024-01-11T07:29:54;7.43;;;2.90;;
48363;SDS011;34170;54.364;18.582;2024-01-11T07:32:22;8.82;;;3.88;;
48363;SDS011;34170;54.364;18.582;2024-01-11T07:34:50;5.82;;;2.92;;
48363;SDS011;34170;54.364;18.582;2024-01-11T07:37:17;8.00;;;3.22;;
48363;SDS011;34170;54.364;18.582;2024-01-11T07:39:45;8.00;;;3.22;;
48363;SDS011;34170;54.364;18.582;2024-01-11T07:42:13;11.20;;;3.78;;
48363;SDS011;34170;54.364;18.582;2024-01-11T07:44:41;8.73;;;3.33;;
48363;SDS011;34170;54.364;18.582;2024-01-11T07:47:09;12.32;;;3.22;;
48363;SDS011;34170;54.364;18.582;2024-01-11T07:49:37;7.40;;;3.38;;
48363;SDS011;34170;54.364;18.582;2024-01-11T07:52:05;9.07;;;2.80;;
48363;SDS011;34170;54.364;18.582;2024-01-11T07:54:32;9.48;;;3.05;;
48363;SDS011;34170;54.364;18.582;2024-01-11T07:57:00;11.27;;;3.25;;
48363;SDS011;34170;54.364;18.582;2024-01-11T07:59:33;7.13;;;2.75;;
48363;SDS011;34170;54.364;18.582;2024-01-11T08:02:03;7.32;;;3.00;;
48363;SDS011;34170;54.364;18.582;2024-01-11T08:04:31;9.23;;;3.42;;
48363;SDS011;34170;54.364;18.582;2024-01-11T08:06:59;6.45;;;2.55;;
48363;SDS011;34170;54.364;18.582;2024-01-11T08:09:27;9.90;;;3.22;;
48363;SDS011;34170;54.364;18.582;2024-01-11T08:11:54;8.93;;;3.08;;
48363;SDS011;34170;54.364;18.582;2024-01-11T08:14:24;9.43;;;2.78;;
48363;SDS011;34170;54.364;18.582;2024-01-11T08:16:52;11.07;;;3.30;;
48363;SDS011;34170;54.364;18.582;2024-01-11T08:19:21;6.82;;;2.85;;
48363;SDS011;34170;54.364;18.582;2024-01-11T08:21:48;7.88;;;3.67;;
48363;SDS011;34170;54.364;18.582;2024-01-11T08:24:16;10.15;;;3.55;;
48363;SDS011;34170;54.364;18.582;2024-01-11T08:26:44;8.35;;;3.65;;
48363;SDS011;34170;54.364;18.582;2024-01-11T08:29:13;8.02;;;3.20;;
48363;SDS011;34170;54.364;18.582;2024-01-11T08:31:41;7.40;;;2.80;;
48363;SDS011;34170;54.364;18.582;2024-01-11T08:34:11;6.93;;;2.80;;
48363;SDS011;34170;54.364;18.582;2024-01-11T08:36:39;9.68;;;2.95;;
48363;SDS011;34170;54.364;18.582;2024-01-11T08:39:07;6.68;;;3.05;;
48363;SDS011;34170;54.364;18.582;2024-01-11T08:41:35;8.75;;;3.28;;
48363;SDS011;34170;54.364;18.582;2024-01-11T08:44:04;6.03;;;2.70;;
48363;SDS011;34170;54.364;18.582;2024-01-11T08:46:34;6.38;;;3.20;;
48363;SDS011;34170;54.364;18.582;2024-01-11T08:49:03;7.32;;;2.70;;
48363;SDS011;34170;54.364;18.582;2024-01-11T08:51:31;7.53;;;2.65;;
48363;SDS011;34170;54.364;18.582;2024-01-11T08:53:59;6.50;;;2.92;;
48363;SDS011;34170;54.364;18.582;2024-01-11T08:56:27;8.15;;;2.92;;
48363;SDS011;34170;54.364;18.582;2024-01-11T08:58:55;5.65;;;2.50;;
48363;SDS011;34170;54.364;18.582;2024-01-11T09:01:22;8.57;;;3.05;;
48363;SDS011;34170;54.364;18.582;2024-01-11T09:03:52;8.40;;;2.40;;
48363;SDS011;34170;54.364;18.582;2024-01-11T09:06:20;8.77;;;2.40;;
48363;SDS011;34170;54.364;18.582;2024-01-11T09:08:47;8.70;;;2.15;;
48363;SDS011;34170;54.364;18.582;2024-01-11T09:11:16;6.53;;;1.95;;
48363;SDS011;34170;54.364;18.582;2024-01-11T09:13:45;7.72;;;2.35;;
48363;SDS011;34170;54.364;18.582;2024-01-11T09:16:16;4.30;;;1.95;;
48363;SDS011;34170;54.364;18.582;2024-01-11T09:18:44;7.15;;;2.15;;
48363;SDS011;34170;54.364;18.582;2024-01-11T09:21:12;6.32;;;2.08;;
48363;SDS011;34170;54.364;18.582;2024-01-11T09:23:40;5.90;;;1.73;;
48363;SDS011;34170;54.364;18.582;2024-01-11T09:26:07;7.32;;;1.75;;
48363;SDS011;34170;54.364;18.582;2024-01-11T09:28:35;6.03;;;1.52;;
48363;SDS011;34170;54.364;18.582;2024-01-11T09:31:03;5.07;;;2.00;;
48363;SDS011;34170;54.364;18.582;2024-01-11T09:33:31;4.18;;;1.83;;
48363;SDS011;34170;54.364;18.582;2024-01-11T09:35:59;4.43;;;1.42;;
48363;SDS011;34170;54.364;18.582;2024-01-11T09:38:27;3.35;;;1.52;;
48363;SDS011;34170;54.364;18.582;2024-01-11T09:41:07;4.55;;;1.20;;
48363;SDS011;34170;54.364;18.582;2024-01-11T09:43:41;3.42;;;1.27;;
48363;SDS011;34170;54.364;18.582;2024-01-11T09:46:10;3.60;;;1.55;;
48363;SDS011;34170;54.364;18.582;2024-01-11T09:48:40;4.25;;;1.25;;
48363;SDS011;34170;54.364;18.582;2024-01-11T09:51:11;6.32;;;1.70;;
48363;SDS011;34170;54.364;18.582;2024-01-11T09:53:39;6.35;;;1.85;;
48363;SDS011;34170;54.364;18.582;2024-01-11T09:56:09;3.30;;;1.35;;
48363;SDS011;34170;54.364;18.582;2024-01-11T09:58:38;4.68;;;1.67;;
48363;SDS011;34170;54.364;18.582;2024-01-11T10:01:12;7.25;;;1.80;;
48363;SDS011;34170;54.364;18.582;2024-01-11T10:03:41;4.15;;;1.27;;
48363;SDS011;34170;54.364;18.582;2024-01-11T10:06:08;5.03;;;1.77;;
48363;SDS011;34170;54.364;18.582;2024-01-11T10:08:37;7.30;;;2.00;;
48363;SDS011;34170;54.364;18.582;2024-01-11T10:11:05;6.70;;;1.80;;
48363;SDS011;34170;54.364;18.582;2024-01-11T10:13:33;5.55;;;1.67;;
48363;SDS011;34170;54.364;18.582;2024-01-11T10:16:09;3.75;;;1.60;;
48363;SDS011;34170;54.364;18.582;2024-01-11T10:18:44;4.75;;;1.65;;
48363;SDS011;34170;54.364;18.582;2024-01-11T10:21:11;4.80;;;1.60;;
48363;SDS011;34170;54.364;18.582;2024-01-11T10:23:39;6.25;;;1.88;;
48363;SDS011;34170;54.364;18.582;2024-01-11T10:26:07;7.95;;;1.85;;
48363;SDS011;34170;54.364;18.582;2024-01-11T10:28:35;6.43;;;1.80;;
48363;SDS011;34170;54.364;18.582;2024-01-11T10:31:05;8.60;;;2.55;;
48363;SDS011;34170;54.364;18.582;2024-01-11T10:33:34;6.97;;;2.17;;
48363;SDS011;34170;54.364;18.582;2024-01-11T10:36:03;7.85;;;2.00;;
48363;SDS011;34170;54.364;18.582;2024-01-11T10:38:31;8.80;;;2.35;;
48363;SDS011;34170;54.364;18.582;2024-01-11T10:41:06;8.38;;;2.22;;
48363;SDS011;34170;54.364;18.582;2024-01-11T10:43:36;6.22;;;2.03;;
48363;SDS011;34170;54.364;18.582;2024-01-11T10:46:04;8.25;;;2.15;;
48363;SDS011;34170;54.364;18.582;2024-01-11T10:48:37;9.85;;;2.38;;
48363;SDS011;34170;54.364;18.582;2024-01-11T10:51:09;7.50;;;2.22;;
48363;SDS011;34170;54.364;18.582;2024-01-11T10:53:45;7.72;;;2.10;;
48363;SDS011;34170;54.364;18.582;2024-01-11T10:56:15;10.73;;;2.42;;
48363;SDS011;34170;54.364;18.582;2024-01-11T10:58:44;7.28;;;2.15;;
48363;SDS011;34170;54.364;18.582;2024-01-11T11:01:13;9.00;;;2.38;;
48363;SDS011;34170;54.364;18.582;2024-01-11T11:03:41;9.60;;;2.05;;
48363;SDS011;34170;54.364;18.582;2024-01-11T11:06:11;6.22;;;1.88;;
48363;SDS011;34170;54.364;18.582;2024-01-11T11:08:40;6.72;;;1.80;;
48363;SDS011;34170;54.364;18.582;2024-01-11T11:11:09;8.98;;;1.70;;
48363;SDS011;34170;54.364;18.582;2024-01-11T11:13:38;4.22;;;1.58;;
48363;SDS011;34170;54.364;18.582;2024-01-11T11:16:07;6.85;;;2.08;;
48363;SDS011;34170;54.364;18.582;2024-01-11T11:18:35;6.68;;;1.80;;
48363;SDS011;34170;54.364;18.582;2024-01-11T11:21:09;9.48;;;3.20;;
48363;SDS011;34170;54.364;18.582;2024-01-11T11:23:39;5.80;;;2.05;;
48363;SDS011;34170;54.364;18.582;2024-01-11T11:26:07;7.10;;;2.17;;
48363;SDS011;34170;54.364;18.582;2024-01-11T11:28:43;7.65;;;2.30;;
48363;SDS011;34170;54.364;18.582;2024-01-11T11:31:11;7.03;;;2.42;;
48363;SDS011;34170;54.364;18.582;2024-01-11T11:33:40;5.75;;;1.92;;
48363;SDS011;34170;54.364;18.582;2024-01-11T11:36:11;5.63;;;1.48;;
48363;SDS011;34170;54.364;18.582;2024-01-11T11:41:07;7.50;;;1.75;;
48363;SDS011;34170;54.364;18.582;2024-01-11T11:43:35;5.97;;;2.05;;
48363;SDS011;34170;54.364;18.582;2024-01-11T11:46:03;3.38;;;1.55;;
48363;SDS011;34170;54.364;18.582;2024-01-11T11:51:09;7.90;;;2.17;;
48363;SDS011;34170;54.364;18.582;2024-01-11T11:53:47;7.18;;;1.10;;
48363;SDS011;34170;54.364;18.582;2024-01-11T11:56:19;3.85;;;1.10;;
48363;SDS011;34170;54.364;18.582;2024-01-11T11:58:48;4.10;;;1.17;;
48363;SDS011;34170;54.364;18.582;2024-01-11T12:01:17;3.92;;;1.30;;
48363;SDS011;34170;54.364;18.582;2024-01-11T12:03:46;5.25;;;1.55;;
48363;SDS011;34170;54.364;18.582;2024-01-11T12:06:17;5.27;;;1.43;;
48363;SDS011;34170;54.364;18.582;2024-01-11T12:08:47;7.05;;;1.58;;
48363;SDS011;34170;54.364;18.582;2024-01-11T12:11:17;4.57;;;1.52;;
48363;SDS011;34170;54.364;18.582;2024-01-11T12:13:46;5.57;;;2.10;;
48363;SDS011;34170;54.364;18.582;2024-01-11T12:16:15;6.47;;;1.70;;
48363;SDS011;34170;54.364;18.582;2024-01-11T12:18:43;6.55;;;1.85;;
48363;SDS011;34170;54.364;18.582;2024-01-11T12:21:11;5.93;;;2.20;;
48363;SDS011;34170;54.364;18.582;2024-01-11T12:23:39;4.47;;;1.65;;
48363;SDS011;34170;54.364;18.582;2024-01-11T12:26:07;5.22;;;1.60;;
48363;SDS011;34170;54.364;18.582;2024-01-11T12:28:41;4.50;;;1.30;;
48363;SDS011;34170;54.364;18.582;2024-01-11T12:31:09;4.90;;;1.60;;
48363;SDS011;34170;54.364;18.582;2024-01-11T12:33:37;5.70;;;1.33;;
48363;SDS011;34170;54.364;18.582;2024-01-11T12:36:06;3.00;;;1.17;;
48363;SDS011;34170;54.364;18.582;2024-01-11T12:38:36;4.07;;;1.38;;
48363;SDS011;34170;54.364;18.582;2024-01-11T12:41:04;4.28;;;1.08;;
48363;SDS011;34170;54.364;18.582;2024-01-11T12:43:33;4.75;;;1.27;;
48363;SDS011;34170;54.364;18.582;2024-01-11T12:46:01;1.73;;;1.00;;
48363;SDS011;34170;54.364;18.582;2024-01-11T12:48:30;2.47;;;0.60;;
48363;SDS011;34170;54.364;18.582;2024-01-11T12:50:58;3.60;;;1.13;;
48363;SDS011;34170;54.364;18.582;2024-01-11T12:53:50;5.03;;;0.90;;
48363;SDS011;34170;54.364;18.582;2024-01-11T12:56:19;4.93;;;0.70;;
48363;SDS011;34170;54.364;18.582;2024-01-11T12:58:49;5.57;;;0.65;;
48363;SDS011;34170;54.364;18.582;2024-01-11T13:01:17;9.32;;;1.30;;
48363;SDS011;34170;54.364;18.582;2024-01-11T13:03:46;7.78;;;1.67;;
48363;SDS011;34170;54.364;18.582;2024-01-11T13:06:14;2.88;;;0.85;;
48363;SDS011;34170;54.364;18.582;2024-01-11T13:08:43;3.70;;;0.75;;
48363;SDS011;34170;54.364;18.582;2024-01-11T13:11:11;3.28;;;0.60;;
48363;SDS011;34170;54.364;18.582;2024-01-11T13:13:41;4.97;;;1.23;;
48363;SDS011;34170;54.364;18.582;2024-01-11T13:16:09;5.47;;;0.90;;
48363;SDS011;34170;54.364;18.582;2024-01-11T13:18:40;1.95;;;0.60;;
48363;SDS011;34170;54.364;18.582;2024-01-11T13:21:08;4.97;;;1.00;;
48363;SDS011;34170;54.364;18.582;2024-01-11T13:23:37;3.63;;;0.80;;
48363;SDS011;34170;54.364;18.582;2024-01-11T13:26:05;2.13;;;0.60;;
48363;SDS011;34170;54.364;18.582;2024-01-11T13:28:34;4.93;;;1.00;;
48363;SDS011;34170;54.364;18.582;2024-01-11T13:31:01;5.13;;;0.75;;
48363;SDS011;34170;54.364;18.582;2024-01-11T13:33:30;2.90;;;0.60;;
48363;SDS011;34170;54.364;18.582;2024-01-11T13:35:57;3.80;;;0.57;;
48363;SDS011;34170;54.364;18.582;2024-01-11T13:38:26;3.30;;;0.43;;
48363;SDS011;34170;54.364;18.582;2024-01-11T13:40:53;5.45;;;1.02;;
48363;SDS011;34170;54.364;18.582;2024-01-11T13:43:21;2.90;;;0.47;;
48363;SDS011;34170;54.364;18.582;2024-01-11T13:45:49;3.08;;;0.70;;
48363;SDS011;34170;54.364;18.582;2024-01-11T13:48:16;3.40;;;0.93;;
48363;SDS011;34170;54.364;18.582;2024-01-11T13:50:44;6.47;;;0.80;;
48363;SDS011;34170;54.364;18.582;2024-01-11T13:53:12;6.28;;;1.05;;
48363;SDS011;34170;54.364;18.582;2024-01-11T13:55:40;2.58;;;0.60;;
48363;SDS011;34170;54.364;18.582;2024-01-11T13:58:08;3.70;;;0.50;;
48363;SDS011;34170;54.364;18.582;2024-01-11T14:00:36;7.38;;;2.25;;
48363;SDS011;34170;54.364;18.582;2024-01-11T14:03:04;6.40;;;0.55;;
48363;SDS011;34170;54.364;18.582;2024-01-11T14:05:33;4.18;;;1.00;;
48363;SDS011;34170;54.364;18.582;2024-01-11T14:08:02;4.18;;;1.23;;
48363;SDS011;34170;54.364;18.582;2024-01-11T14:10:33;2.45;;;0.60;;
48363;SDS011;34170;54.364;18.582;2024-01-11T14:13:01;4.20;;;0.73;;
48363;SDS011;34170;54.364;18.582;2024-01-11T14:15:30;5.22;;;1.10;;
48363;SDS011;34170;54.364;18.582;2024-01-11T14:17:58;7.25;;;1.27;;
48363;SDS011;34170;54.364;18.582;2024-01-11T14:20:26;4.93;;;1.08;;
48363;SDS011;34170;54.364;18.582;2024-01-11T14:22:55;5.32;;;1.10;;
48363;SDS011;34170;54.364;18.582;2024-01-11T14:25:23;6.72;;;1.23;;
48363;SDS011;34170;54.364;18.582;2024-01-11T14:27:52;7.22;;;1.65;;
48363;SDS011;34170;54.364;18.582;2024-01-11T14:30:23;7.47;;;1.27;;
48363;SDS011;34170;54.364;18.582;2024-01-11T14:32:51;8.77;;;1.10;;
48363;SDS011;34170;54.364;18.582;2024-01-11T14:35:18;4.20;;;1.00;;
48363;SDS011;34170;54.364;18.582;2024-01-11T14:37:46;7.00;;;1.10;;
48363;SDS011;34170;54.364;18.582;2024-01-11T14:40:14;5.25;;;1.17;;
48363;SDS011;34170;54.364;18.582;2024-01-11T14:42:42;5.55;;;1.00;;
48363;SDS011;34170;54.364;18.582;2024-01-11T14:45:10;6.35;;;1.02;;
48363;SDS011;34170;54.364;18.582;2024-01-11T14:47:38;5.43;;;2.25;;
48363;SDS011;34170;54.364;18.582;2024-01-11T14:50:06;6.63;;;1.27;;
48363;SDS011;34170;54.364;18.582;2024-01-11T14:52:38;5.65;;;1.23;;